createdAt,value
2022-10-23T00:01:32.182Z,99140.03
2022-10-23T00:04:01.938Z,99149.28
2022-10-23T00:06:29.875Z,99136.81
2022-10-23T00:08:56.892Z,99153.78
2022-10-23T00:11:27.190Z,99149.66
2022-10-23T00:13:56.015Z,99145.13
2022-10-23T00:16:23.176Z,99151.22
2022-10-23T00:18:50.455Z,99159.81
2022-10-23T00:21:17.619Z,99156.47
2022-10-23T00:23:45.652Z,99156.81
2022-10-23T00:26:16.621Z,99158.12
2022-10-23T00:28:44.838Z,99147.91
2022-10-23T00:31:12.593Z,99151.72
2022-10-23T00:33:41.623Z,99151.97
2022-10-23T00:36:11.033Z,99143.91
2022-10-23T00:38:38.320Z,99151.97
2022-10-23T00:41:07.284Z,99156.03
2022-10-23T00:43:53.828Z,99152.81
2022-10-23T00:46:21.157Z,99166.03
2022-10-23T00:48:48.445Z,99169.34
2022-10-23T00:51:15.653Z,99176.72
2022-10-23T00:53:43.736Z,99169.91
2022-10-23T00:56:11.250Z,99181.47
2022-10-23T00:58:38.287Z,99187.16
2022-10-23T01:01:19.010Z,99182.88
2022-10-23T01:03:47.762Z,99189.53
2022-10-23T01:06:32.118Z,99196.66
2022-10-23T01:09:05.134Z,99195.47
2022-10-23T01:11:40.159Z,99201.50
2022-10-23T01:14:25.783Z,99207.09
2022-10-23T01:17:03.163Z,99210.91
2022-10-23T01:19:53.515Z,99209.56
2022-10-23T01:22:54.636Z,99200.69
2022-10-23T01:25:55.200Z,99206.25
2022-10-23T01:28:29.123Z,99211.50
2022-10-23T01:30:58.571Z,99211.50
2022-10-23T01:33:41.077Z,99202.72
2022-10-23T01:36:14.711Z,99208.75
2022-10-23T01:38:46.828Z,99204.38
2022-10-23T01:41:18.194Z,99204.50
2022-10-23T01:43:49.973Z,99207.00
2022-10-23T01:46:17.999Z,99211.16
2022-10-23T01:48:53.193Z,99210.81
2022-10-23T01:51:23.033Z,99209.97
2022-10-23T01:53:53.309Z,99209.37
2022-10-23T01:56:23.856Z,99204.03
2022-10-23T01:58:52.842Z,99208.66
2022-10-23T02:01:22.332Z,99207.47
2022-10-23T02:03:52.256Z,99209.00
2022-10-23T02:06:19.564Z,99211.53
2022-10-23T02:08:46.976Z,99197.59
2022-10-23T02:11:17.403Z,99202.13
2022-10-23T02:14:08.545Z,99200.69
2022-10-23T02:16:41.044Z,99204.03
2022-10-23T02:19:35.965Z,99205.12
2022-10-23T02:22:17.272Z,99209.00
2022-10-23T02:25:04.492Z,99205.69
2022-10-23T02:27:45.551Z,99201.44
2022-10-23T02:30:15.207Z,99214.84
2022-10-23T02:32:47.745Z,99220.81
2022-10-23T02:35:18.336Z,99222.19
2022-10-23T02:37:56.658Z,99221.47
2022-10-23T02:40:26.731Z,99223.00
2022-10-23T02:43:12.526Z,99227.81
2022-10-23T02:45:50.343Z,99233.16
2022-10-23T02:48:22.860Z,99249.03
2022-10-23T02:50:59.008Z,99251.00
2022-10-23T02:53:50.693Z,99257.69
2022-10-23T02:56:33.451Z,99257.75
2022-10-23T02:59:20.489Z,99261.91
2022-10-23T03:02:00.638Z,99251.91
2022-10-23T03:04:28.278Z,99265.91
2022-10-23T03:06:55.789Z,99263.63
2022-10-23T03:09:23.244Z,99264.91
2022-10-23T03:11:50.541Z,99260.13
2022-10-23T03:14:18.542Z,99259.81
2022-10-23T03:16:45.526Z,99269.97
2022-10-23T03:19:12.969Z,99269.53
2022-10-23T03:21:40.640Z,99265.62
2022-10-23T03:24:08.129Z,99271.66
2022-10-23T03:26:35.568Z,99262.69
2022-10-23T03:29:02.588Z,99266.22
2022-10-23T03:31:29.601Z,99269.03
2022-10-23T03:33:57.173Z,99267.25
2022-10-23T03:36:24.160Z,99266.12
2022-10-23T03:38:51.240Z,99272.25
2022-10-23T03:41:18.550Z,99264.84
2022-10-23T03:43:45.571Z,99262.13
2022-10-23T03:46:13.118Z,99271.13
2022-10-23T03:48:42.043Z,99268.81
2022-10-23T03:51:09.236Z,99273.81
2022-10-23T03:53:36.294Z,99274.75
2022-10-23T03:56:04.525Z,99263.28
2022-10-23T03:58:33.525Z,99266.97
2022-10-23T04:01:00.593Z,99278.06
2022-10-23T04:03:27.969Z,99282.31
2022-10-23T04:05:55.001Z,99279.03
2022-10-23T04:08:22.270Z,99279.97
2022-10-23T04:10:49.832Z,99270.63
2022-10-23T04:13:19.168Z,99267.25
2022-10-23T04:15:50.077Z,99260.47
2022-10-23T04:18:17.979Z,99257.19
2022-10-23T04:20:47.983Z,99267.09
2022-10-23T04:23:15.563Z,99270.13
2022-10-23T04:25:43.653Z,99267.72
2022-10-23T04:28:10.866Z,99267.31
2022-10-23T04:30:38.127Z,99267.41
2022-10-23T04:33:06.881Z,99265.78
2022-10-23T04:35:33.877Z,99275.63
2022-10-23T04:38:00.904Z,99281.88
2022-10-23T04:40:29.703Z,99275.81
2022-10-23T04:42:56.697Z,99278.13
2022-10-23T04:45:23.748Z,99276.66
2022-10-23T04:47:53.363Z,99280.62
2022-10-23T04:50:20.669Z,99286.06
2022-10-23T04:53:02.509Z,99285.06
2022-10-23T04:55:31.949Z,99291.69
2022-10-23T04:58:03.478Z,99287.00
2022-10-23T05:00:30.580Z,99290.84
2022-10-23T05:02:57.999Z,99291.91
2022-10-23T05:05:30.306Z,99287.31
2022-10-23T05:07:57.768Z,99287.69
2022-10-23T05:10:24.857Z,99278.28
2022-10-23T05:12:52.143Z,99289.75
2022-10-23T05:15:19.432Z,99286.72
2022-10-23T05:17:48.474Z,99282.13
2022-10-23T05:20:19.030Z,99296.00
2022-10-23T05:22:50.277Z,99296.00
2022-10-23T05:25:19.935Z,99296.28
2022-10-23T05:27:47.757Z,99299.06
2022-10-23T05:30:15.880Z,99281.28
2022-10-23T05:32:43.204Z,99289.78
2022-10-23T05:35:14.826Z,99289.00
2022-10-23T05:37:47.575Z,99287.00
2022-10-23T05:40:15.186Z,99290.88
2022-10-23T05:42:42.456Z,99292.34
2022-10-23T05:45:10.835Z,99300.59
2022-10-23T05:47:39.077Z,99291.34
2022-10-23T05:50:06.353Z,99298.03
2022-10-23T05:52:33.909Z,99304.00
2022-10-23T05:55:01.883Z,99299.28
2022-10-23T05:57:35.766Z,99295.69
2022-10-23T06:00:04.321Z,99305.09
2022-10-23T06:02:40.480Z,99310.22
2022-10-23T06:05:09.279Z,99321.13
2022-10-23T06:07:37.575Z,99320.78
2022-10-23T06:10:05.774Z,99318.78
2022-10-23T06:12:34.230Z,99316.28
2022-10-23T06:15:01.441Z,99311.88
2022-10-23T06:17:31.125Z,99308.66
2022-10-23T06:20:02.419Z,99315.31
2022-10-23T06:22:30.381Z,99313.63
2022-10-23T06:25:00.001Z,99311.75
2022-10-23T06:27:27.378Z,99331.34
2022-10-23T06:29:55.093Z,99332.16
2022-10-23T06:32:22.536Z,99339.75
2022-10-23T06:34:49.960Z,99348.53
2022-10-23T06:37:17.005Z,99354.72
2022-10-23T06:39:44.530Z,99354.47
2022-10-23T06:42:12.820Z,99361.91
2022-10-23T06:44:40.946Z,99369.03
2022-10-23T06:47:10.681Z,99367.06
2022-10-23T06:49:40.152Z,99367.69
2022-10-23T06:52:14.298Z,99362.69
2022-10-23T06:54:50.622Z,99364.38
2022-10-23T06:57:17.913Z,99371.97
2022-10-23T06:59:45.177Z,99368.41
2022-10-23T07:02:12.592Z,99370.44
2022-10-23T07:04:41.191Z,99369.94
2022-10-23T07:07:10.241Z,99365.50
2022-10-23T07:09:38.130Z,99369.91
2022-10-23T07:12:07.755Z,99360.91
2022-10-23T07:14:35.106Z,99367.31
2022-10-23T07:17:03.132Z,99371.56
2022-10-23T07:19:30.146Z,99376.81
2022-10-23T07:21:57.396Z,99371.00
2022-10-23T07:24:25.211Z,99382.13
2022-10-23T07:26:53.879Z,99376.09
2022-10-23T07:29:23.265Z,99380.56
2022-10-23T07:31:50.583Z,99366.06
2022-10-23T07:34:19.648Z,99364.41
2022-10-23T07:36:47.204Z,99367.38
2022-10-23T07:39:14.582Z,99367.84
2022-10-23T07:41:42.002Z,99368.13
2022-10-23T07:44:09.038Z,99359.16
2022-10-23T07:46:36.328Z,99360.19
2022-10-23T07:49:03.611Z,99359.50
2022-10-23T07:51:31.133Z,99366.72
2022-10-23T07:53:59.226Z,99361.59
2022-10-23T07:56:31.616Z,99361.34
2022-10-23T07:59:00.106Z,99363.69
2022-10-23T08:01:39.701Z,99354.00
2022-10-23T08:04:07.240Z,99355.09
2022-10-23T08:06:38.427Z,99354.66
2022-10-23T08:09:06.789Z,99355.97
2022-10-23T08:11:38.187Z,99358.69
2022-10-23T08:14:06.523Z,99362.88
2022-10-23T08:16:35.473Z,99371.62
2022-10-23T08:19:05.511Z,99360.75
2022-10-23T08:21:32.957Z,99367.59
2022-10-23T08:24:01.028Z,99361.03
2022-10-23T08:26:29.506Z,99363.09
2022-10-23T08:28:59.119Z,99359.28
2022-10-23T08:31:26.523Z,99364.47
2022-10-23T08:33:55.854Z,99363.19
2022-10-23T08:36:27.965Z,99357.56
2022-10-23T08:38:56.904Z,99369.94
2022-10-23T08:41:31.863Z,99360.13
2022-10-23T08:44:07.316Z,99359.44
2022-10-23T08:46:38.914Z,99361.50
2022-10-23T08:49:24.109Z,99354.53
2022-10-23T08:51:54.717Z,99342.25
2022-10-23T08:54:40.113Z,99341.88
2022-10-23T08:57:14.250Z,99349.12
2022-10-23T09:00:08.439Z,99355.16
2022-10-23T09:02:42.749Z,99352.44
2022-10-23T09:05:17.158Z,99350.09
2022-10-23T09:07:56.164Z,99355.94
2022-10-23T09:10:51.465Z,99353.72
2022-10-23T09:13:40.727Z,99361.88
2022-10-23T09:16:18.883Z,99366.38
2022-10-23T09:18:47.423Z,99377.44
2022-10-23T09:21:14.683Z,99375.25
2022-10-23T09:23:41.957Z,99380.03
2022-10-23T09:26:17.466Z,99387.38
2022-10-23T09:28:51.497Z,99377.63
2022-10-23T09:31:19.402Z,99383.31
2022-10-23T09:33:57.750Z,99386.44
2022-10-23T09:36:27.512Z,99383.94
2022-10-23T09:38:58.862Z,99381.22
2022-10-23T09:41:39.062Z,99386.22
2022-10-23T09:44:18.912Z,99385.84
2022-10-23T09:46:54.987Z,99382.31
2022-10-23T09:49:27.767Z,99378.19
2022-10-23T09:52:19.979Z,99378.78
2022-10-23T09:54:53.556Z,99374.22
2022-10-23T09:57:26.837Z,99373.56
2022-10-23T09:59:56.657Z,99371.38
2022-10-23T10:02:28.745Z,99378.63
2022-10-23T10:04:56.414Z,99382.22
2022-10-23T10:07:25.958Z,99376.69
2022-10-23T10:09:54.834Z,99382.09
2022-10-23T10:12:43.957Z,99383.03
2022-10-23T10:15:37.137Z,99380.81
2022-10-23T10:18:16.966Z,99376.03
2022-10-23T10:20:54.412Z,99378.28
2022-10-23T10:23:46.875Z,99374.19
2022-10-23T10:26:30.928Z,99372.06
2022-10-23T10:29:32.158Z,99360.75
2022-10-23T10:32:34.658Z,99362.44
2022-10-23T10:35:13.871Z,99363.06
2022-10-23T10:37:47.425Z,99360.13
2022-10-23T10:40:28.466Z,99356.97
2022-10-23T10:43:04.101Z,99344.91
2022-10-23T10:45:34.425Z,99335.09
2022-10-23T10:48:39.084Z,99322.16
2022-10-23T10:51:39.954Z,99320.50
2022-10-23T10:54:12.568Z,99314.69
2022-10-23T10:56:42.613Z,99316.22
2022-10-23T10:59:17.571Z,99314.47
2022-10-23T11:01:51.060Z,99305.50
2022-10-23T11:04:38.038Z,99300.91
2022-10-23T11:07:12.090Z,99297.56
2022-10-23T11:09:39.636Z,99294.16
2022-10-23T11:12:07.014Z,99301.34
2022-10-23T11:14:34.608Z,99297.16
2022-10-23T11:17:16.982Z,99301.84
2022-10-23T11:19:47.870Z,99302.09
2022-10-23T11:22:20.647Z,99289.22
2022-10-23T11:25:18.283Z,99302.41
2022-10-23T11:28:03.552Z,99299.56
2022-10-23T11:30:54.330Z,99301.06
2022-10-23T11:33:44.825Z,99309.31
2022-10-23T11:36:41.605Z,99301.75
2022-10-23T11:39:27.160Z,99300.75
2022-10-23T11:41:59.006Z,99301.75
2022-10-23T11:44:34.862Z,99297.78
2022-10-23T11:47:05.281Z,99292.72
2022-10-23T11:49:32.508Z,99287.22
2022-10-23T11:52:01.550Z,99277.00
2022-10-23T11:54:29.139Z,99286.50
2022-10-23T11:57:10.544Z,99280.47
2022-10-23T11:59:49.905Z,99277.63
2022-10-23T12:02:32.077Z,99276.03
2022-10-23T12:05:04.370Z,99259.53
2022-10-23T12:07:34.173Z,99265.06
2022-10-23T12:10:02.647Z,99264.88
2022-10-23T12:12:35.204Z,99264.50
2022-10-23T12:15:22.106Z,99261.84
2022-10-23T12:17:51.255Z,99265.44
2022-10-23T12:20:24.011Z,99253.75
2022-10-23T12:23:11.208Z,99261.44
2022-10-23T12:25:57.313Z,99249.03
2022-10-23T12:28:47.252Z,99241.44
2022-10-23T12:31:17.255Z,99241.28
2022-10-23T12:33:53.496Z,99228.72
2022-10-23T12:36:25.710Z,99232.97
2022-10-23T12:38:54.758Z,99222.59
2022-10-23T12:41:29.028Z,99225.44
2022-10-23T12:44:01.552Z,99213.50
2022-10-23T12:46:31.935Z,99214.81
2022-10-23T12:49:01.347Z,99209.03
2022-10-23T12:51:33.466Z,99211.34
2022-10-23T12:54:01.526Z,99222.59
2022-10-23T12:56:35.463Z,99209.53
2022-10-23T12:59:02.860Z,99205.06
2022-10-23T13:01:33.015Z,99210.88
2022-10-23T13:04:14.333Z,99209.37
2022-10-23T13:06:42.063Z,99194.66
2022-10-23T13:09:22.430Z,99192.19
2022-10-23T13:11:51.100Z,99199.66
2022-10-23T13:14:31.520Z,99198.28
2022-10-23T13:17:10.249Z,99196.66
2022-10-23T13:19:37.655Z,99191.19
2022-10-23T13:22:19.544Z,99182.75
2022-10-23T13:24:46.833Z,99185.91
2022-10-23T13:27:32.939Z,99178.28
2022-10-23T13:30:00.202Z,99176.31
2022-10-23T13:32:30.259Z,99183.59
2022-10-23T13:35:04.337Z,99177.31
2022-10-23T13:40:19.362Z,99175.66
2022-10-23T13:42:50.550Z,99163.37
2022-10-23T13:45:21.637Z,99159.56
2022-10-23T13:47:49.101Z,99167.00
2022-10-23T13:50:19.542Z,99165.94
2022-10-23T13:52:47.438Z,99168.47
2022-10-23T13:55:22.259Z,99164.03
2022-10-23T13:57:52.229Z,99162.34
2022-10-23T14:00:19.781Z,99159.78
2022-10-23T14:02:47.451Z,99155.13
2022-10-23T14:05:14.564Z,99153.34
2022-10-23T14:07:41.910Z,99141.84
2022-10-23T14:10:09.695Z,99142.19
2022-10-23T14:12:43.972Z,99145.09
2022-10-23T14:15:11.694Z,99150.00
2022-10-23T14:17:38.794Z,99144.66
2022-10-23T14:20:06.539Z,99137.06
2022-10-23T14:22:33.943Z,99144.31
2022-10-23T14:25:00.988Z,99144.47
2022-10-23T14:27:29.456Z,99141.38
2022-10-23T14:29:57.366Z,99139.03
2022-10-23T14:32:24.707Z,99137.81
2022-10-23T14:34:55.223Z,99139.66
2022-10-23T14:37:22.534Z,99133.88
2022-10-23T14:39:50.424Z,99125.63
2022-10-23T14:42:18.016Z,99119.41
2022-10-23T14:44:45.376Z,99109.91
2022-10-23T14:47:12.389Z,99114.03
2022-10-23T14:49:40.286Z,99106.94
2022-10-23T14:52:07.810Z,99102.63
2022-10-23T14:54:36.391Z,99097.72
2022-10-23T14:57:03.845Z,99106.31
2022-10-23T14:59:31.321Z,99101.34
2022-10-23T15:01:58.369Z,99104.66
2022-10-23T15:04:25.615Z,99105.00
2022-10-23T15:06:52.930Z,99088.91
2022-10-23T15:09:20.280Z,99085.94
2022-10-23T15:11:47.632Z,99075.53
2022-10-23T15:14:14.945Z,99084.94
2022-10-23T15:16:42.123Z,99079.16
2022-10-23T15:19:17.286Z,99075.72
2022-10-23T15:21:50.272Z,99079.97
2022-10-23T15:24:17.887Z,99077.00
2022-10-23T15:26:45.262Z,99079.34
2022-10-23T15:29:12.652Z,99076.53
2022-10-23T15:31:41.860Z,99076.78
2022-10-23T15:34:12.116Z,99083.94
2022-10-23T15:36:39.139Z,99084.75
2022-10-23T15:39:08.623Z,99076.31
2022-10-23T15:41:37.446Z,99091.66
2022-10-23T15:44:05.434Z,99096.69
2022-10-23T15:46:32.710Z,99103.97
2022-10-23T15:49:00.035Z,99105.81
2022-10-23T15:51:27.257Z,99101.50
2022-10-23T15:53:54.458Z,99095.47
2022-10-23T15:56:21.840Z,99098.28
2022-10-23T15:58:48.844Z,99084.13
2022-10-23T16:01:15.865Z,99077.84
2022-10-23T16:03:43.435Z,99073.56
2022-10-23T16:06:12.497Z,99078.44
2022-10-23T16:08:39.780Z,99080.84
2022-10-23T16:11:15.201Z,99086.03
2022-10-23T16:13:43.790Z,99099.53
2022-10-23T16:16:12.130Z,99105.84
2022-10-23T16:18:40.723Z,99113.75
2022-10-23T16:21:08.114Z,99117.72
2022-10-23T16:23:38.138Z,99119.88
2022-10-23T16:26:06.234Z,99117.09
2022-10-23T16:28:37.739Z,99136.88
2022-10-23T16:31:17.694Z,99127.50
2022-10-23T16:33:48.283Z,99120.56
2022-10-23T16:36:15.360Z,99122.69
2022-10-23T16:38:53.353Z,99111.78
2022-10-23T16:41:23.818Z,99109.34
2022-10-23T16:43:51.229Z,99107.78
2022-10-23T16:46:21.015Z,99111.06
2022-10-23T16:48:50.189Z,99123.59
2022-10-23T16:51:19.580Z,99131.53
2022-10-23T16:53:47.142Z,99136.00
2022-10-23T16:56:16.846Z,99132.84
2022-10-23T16:58:44.294Z,99142.41
2022-10-23T17:01:14.170Z,99146.53
2022-10-23T17:03:43.542Z,99145.03
2022-10-23T17:06:12.777Z,99142.34
2022-10-23T17:08:40.436Z,99151.16
2022-10-23T17:11:16.447Z,99143.12
2022-10-23T17:13:46.158Z,99143.28
2022-10-23T17:16:19.742Z,99137.59
2022-10-23T17:18:47.050Z,99147.19
2022-10-23T17:21:15.849Z,99143.28
2022-10-23T17:23:43.216Z,99150.88
2022-10-23T17:26:12.176Z,99147.63
2022-10-23T17:28:43.284Z,99157.72
2022-10-23T17:31:27.528Z,99147.87
2022-10-23T17:33:58.550Z,99135.53
2022-10-23T17:36:27.406Z,99138.91
2022-10-23T17:38:54.810Z,99133.09
2022-10-23T17:41:23.646Z,99121.19
2022-10-23T17:43:51.210Z,99123.31
2022-10-23T17:46:18.693Z,99121.44
2022-10-23T17:48:45.796Z,99118.47
2022-10-23T17:51:24.760Z,99109.53
2022-10-23T17:53:53.975Z,99109.06
2022-10-23T17:56:27.471Z,99117.50
2022-10-23T17:59:00.512Z,99112.84
2022-10-23T18:01:28.768Z,99112.53
2022-10-23T18:04:03.329Z,99112.53
2022-10-23T18:06:36.360Z,99118.63
2022-10-23T18:09:05.769Z,99114.72
2022-10-23T18:11:35.320Z,99113.50
2022-10-23T18:14:03.357Z,99122.25
2022-10-23T18:16:30.741Z,99121.69
2022-10-23T18:18:59.969Z,99119.13
2022-10-23T18:21:27.501Z,99107.91
2022-10-23T18:24:01.857Z,99108.94
2022-10-23T18:26:30.849Z,99106.12
2022-10-23T18:28:59.157Z,99117.25
2022-10-23T18:31:30.200Z,99116.84
2022-10-23T18:34:04.411Z,99117.56
2022-10-23T18:36:32.451Z,99121.16
2022-10-23T18:39:00.341Z,99111.59
2022-10-23T18:41:28.558Z,99119.94
2022-10-23T18:43:55.540Z,99110.16
2022-10-23T18:46:22.812Z,99107.94
2022-10-23T18:48:53.177Z,99103.03
2022-10-23T18:51:25.809Z,99110.47
2022-10-23T18:53:53.274Z,99112.34
2022-10-23T18:56:23.421Z,99111.94
2022-10-23T18:58:51.214Z,99105.91
2022-10-23T19:01:19.802Z,99108.00
2022-10-23T19:03:47.527Z,99102.22
2022-10-23T19:06:15.463Z,99099.47
2022-10-23T19:08:44.086Z,99098.31
2022-10-23T19:11:14.158Z,99093.91
2022-10-23T19:13:42.073Z,99094.16
2022-10-23T19:16:24.417Z,99093.19
2022-10-23T19:18:58.137Z,99108.84
2022-10-23T19:21:31.289Z,99108.53
2022-10-23T19:24:04.258Z,99101.25
2022-10-23T19:26:34.011Z,99104.75
2022-10-23T19:29:01.125Z,99108.22
2022-10-23T19:31:28.244Z,99105.91
2022-10-23T19:33:55.659Z,99105.97
2022-10-23T19:36:23.691Z,99101.91
2022-10-23T19:38:51.121Z,99095.97
2022-10-23T19:41:18.928Z,99098.81
2022-10-23T19:43:45.948Z,99112.59
2022-10-23T19:46:13.031Z,99108.97
2022-10-23T19:48:44.400Z,99112.88
2022-10-23T19:51:13.419Z,99110.63
2022-10-23T19:53:42.054Z,99115.03
2022-10-23T19:56:10.728Z,99114.00
2022-10-23T19:58:38.330Z,99112.75
2022-10-23T20:01:11.885Z,99106.12
2022-10-23T20:03:40.542Z,99103.78
2022-10-23T20:06:12.696Z,99113.34
2022-10-23T20:08:41.121Z,99114.78
2022-10-23T20:11:08.606Z,99110.16
2022-10-23T20:13:35.906Z,99101.81
2022-10-23T20:16:03.655Z,99103.78
2022-10-23T20:18:30.673Z,99112.44
2022-10-23T20:21:01.840Z,99099.78
2022-10-23T20:23:29.265Z,99105.06
2022-10-23T20:26:07.104Z,99094.22
2022-10-23T20:28:34.876Z,99101.59
2022-10-23T20:31:11.603Z,99098.31
2022-10-23T20:33:40.177Z,99094.75
2022-10-23T20:36:09.422Z,99097.09
2022-10-23T20:38:36.524Z,99087.66
2022-10-23T20:41:07.025Z,99085.13
2022-10-23T20:43:34.260Z,99084.13
2022-10-23T20:46:08.678Z,99079.56
2022-10-23T20:48:37.181Z,99063.81
2022-10-23T20:51:05.621Z,99060.81
2022-10-23T20:53:33.830Z,99057.22
2022-10-23T20:56:05.481Z,99065.94
2022-10-23T20:58:33.186Z,99072.41
2022-10-23T21:01:09.067Z,99081.66
2022-10-23T21:03:37.175Z,99077.09
2022-10-23T21:06:09.890Z,99074.59
2022-10-23T21:08:37.825Z,99073.09
2022-10-23T21:11:05.750Z,99074.16
2022-10-23T21:13:32.791Z,99069.84
2022-10-23T21:16:00.159Z,99063.75
2022-10-23T21:18:45.047Z,99068.41
2022-10-23T21:21:14.946Z,99063.97
2022-10-23T21:23:42.234Z,99067.56
2022-10-23T21:26:09.242Z,99071.06
2022-10-23T21:28:36.399Z,99067.72
2022-10-23T21:31:06.252Z,99068.19
2022-10-23T21:33:33.969Z,99065.34
2022-10-23T21:36:13.526Z,99070.44
2022-10-23T21:38:41.433Z,99064.53
2022-10-23T21:41:10.322Z,99072.63
2022-10-23T21:43:37.371Z,99073.22
2022-10-23T21:46:05.611Z,99064.88
2022-10-23T21:48:33.241Z,99059.62
2022-10-23T21:51:00.413Z,99061.94
2022-10-23T21:53:28.439Z,99057.72
2022-10-23T21:55:56.353Z,99056.84
2022-10-23T21:58:23.405Z,99058.50
2022-10-23T22:00:50.692Z,99059.00
2022-10-23T22:03:18.402Z,99059.41
2022-10-23T22:05:45.511Z,99064.56
2022-10-23T22:08:12.515Z,99062.59
2022-10-23T22:10:39.806Z,99063.31
2022-10-23T22:13:06.808Z,99068.56
2022-10-23T22:15:33.871Z,99060.72
2022-10-23T22:18:01.253Z,99056.47
2022-10-23T22:20:28.237Z,99065.63
2022-10-23T22:22:55.221Z,99060.12
2022-10-23T22:25:22.516Z,99061.88
2022-10-23T22:27:49.725Z,99055.78
2022-10-23T22:30:16.893Z,99066.25
2022-10-23T22:32:44.485Z,99061.28
2022-10-23T22:35:11.598Z,99069.38
2022-10-23T22:37:38.602Z,99062.16
2022-10-23T22:40:06.526Z,99055.31
2022-10-23T22:42:33.558Z,99060.06
2022-10-23T22:45:00.557Z,99063.91
2022-10-23T22:47:29.343Z,99055.16
2022-10-23T22:49:56.370Z,99060.22
2022-10-23T22:52:23.354Z,99057.59
2022-10-23T22:54:50.620Z,99056.00
2022-10-23T22:57:17.636Z,99045.03
2022-10-23T22:59:44.669Z,99043.00
2022-10-23T23:02:12.157Z,99031.75
2022-10-23T23:04:39.597Z,99028.78
2022-10-23T23:07:11.890Z,99034.03
2022-10-23T23:09:43.784Z,99029.38
2022-10-23T23:12:12.732Z,99031.56
2022-10-23T23:14:40.580Z,99035.00
2022-10-23T23:17:08.682Z,99034.63
2022-10-23T23:19:35.890Z,99033.06
2022-10-23T23:22:03.996Z,99029.16
2022-10-23T23:24:30.993Z,99023.75
2022-10-23T23:26:58.015Z,99029.22
2022-10-23T23:29:25.417Z,99034.78
2022-10-23T23:31:52.403Z,99026.69
2022-10-23T23:34:19.380Z,99030.63
2022-10-23T23:36:46.764Z,99021.62
2022-10-23T23:39:13.790Z,99026.37
2022-10-23T23:41:40.801Z,99021.09
2022-10-23T23:44:09.318Z,99021.94
2022-10-23T23:46:36.288Z,99030.03
2022-10-23T23:49:03.301Z,99023.94
2022-10-23T23:51:30.589Z,99026.28
2022-10-23T23:53:57.586Z,99034.56
2022-10-23T23:56:24.666Z,99022.06
2022-10-23T23:58:51.949Z,99028.59
